• Join FlightAware (Why Join?)
  • Login
  • US Flag 
06:37AM EDT


 

Airport Tracker/Info


-or-


 

Live Flight TrackerFlight Track Log ✈ EJA831 ✈ 27-Jul-2013 ✈ KGSO - KDAL

Flight Track Log - Related Links

Times and Time Zones

All times are in EDT time to prevent confusion due to time zone crossing. See the EJA831 flight status page for this flight to view local times or setup timezone preferences in your user account.

Time Position Orientation Groundspeed Altitude Reporting Facility
EDT Latitude Longitude Course Direction KTS MPH feet Rate Location/Type
11:15AM 35.9972 -79.9733 202° Southwest 187 215 7,400  Level Atlanta Center
11:16AM 35.9378 -80.0072 205° Southwest 211 243 10,100 3,000 Climbing Atlanta Center
11:17AM 35.8619 -80.0467 203° Southwest 258 297 13,400 2,880 Climbing Atlanta Center
11:18AM 35.7925 -80.0911 207° Southwest 276 318 15,900 2,340 Climbing Atlanta Center
11:19AM 35.7383 -80.1628 227° Southwest 287 330 18,100 1,860 Climbing Atlanta Center
11:20AM 35.5661 -80.2004 202° Southwest  Level FlightAware Approximate
11:20AM 35.7017 -80.2567 244° Southwest 300 345 19,700  Level Atlanta Center
11:21AM 35.6631 -80.3606 245° Southwest 321 369 22,400 2,160 Climbing Atlanta Center
11:22AM 35.6303 -80.4464 245° Southwest 321 369 24,100 1,800 Climbing Atlanta Center
11:23AM 35.5892 -80.5428 242° Southwest 321 369 26,100 1,800 Climbing Atlanta Center
11:24AM 35.5439 -80.6339 239° Southwest 327 376 27,700 1,500 Climbing Atlanta Center
11:25AM 35.4964 -80.7303 239° Southwest 327 376 29,100 1,080 Climbing Atlanta Center
11:26AM 35.4508 -80.8289 240° Southwest 333 383 29,900 900 Climbing Atlanta Center
11:27AM 35.3994 -80.9331 239° Southwest 328 377 30,900 840 Climbing Atlanta Center
11:28AM 35.3517 -81.0314 239° Southwest 328 377 31,600 660 Climbing Atlanta Center
11:29AM 35.3042 -81.1300 239° Southwest 333 383 32,300 660 Climbing Atlanta Center
11:30AM 35.2564 -81.2283 239° Southwest 333 383 33,000 660 Climbing Atlanta Center
11:31AM 35.2083 -81.3264 239° Southwest 338 389 33,700 600 Climbing Atlanta Center
11:32AM 35.1664 -81.4142 240° Southwest 338 389 34,300 780 Climbing Atlanta Center
11:33AM 35.1186 -81.5122 239° Southwest 343 395 35,300 1,200 Climbing Atlanta Center
11:34AM 35.0706 -81.6128 240° Southwest 343 395 36,800 1,440 Climbing Atlanta Center
11:35AM 35.0242 -81.7078 239° Southwest 338 389 38,200 1,200 Climbing Atlanta Center
11:36AM 34.9761 -81.8056 239° Southwest 343 395 39,200 720 Climbing Atlanta Center
11:37AM 34.9278 -81.9031 239° Southwest 343 395 39,700 360 Climbing Atlanta Center
11:38AM 34.8733 -82.0133 239° Southwest 343 395 40,000 120 Climbing Atlanta Center
11:39AM 34.8206 -82.1208 239° Southwest 353 406 40,000  Level Atlanta Center
11:40AM 34.7661 -82.2308 239° Southwest 370 426 40,000  Level Atlanta Center
11:41AM 34.7092 -82.3433 238° Southwest 390 449 40,000  Level Atlanta Center
11:42AM 34.6544 -82.4556 239° Southwest 390 449 40,000  Level Atlanta Center
11:43AM 34.5972 -82.5675 238° Southwest 390 449 40,000  Level Atlanta Center
11:44AM 34.5339 -82.6772 235° Southwest 398 458 40,000  Level Atlanta Center
11:45AM 34.4850 -82.7814 240° Southwest 398 458 40,000  Level Atlanta Center
11:46AM 34.4297 -82.8903 238° Southwest 393 452 40,000  Level Atlanta Center
11:47AM 34.3722 -83.0019 238° Southwest 393 452 40,000  Level Atlanta Center
11:48AM 34.3167 -83.1108 238° Southwest 393 452 40,000  Level Atlanta Center
11:49AM 34.2592 -83.2194 237° Southwest 388 447 40,000  Level Atlanta Center
11:50AM 34.2033 -83.3331 239° Southwest 388 447 40,000  Level Atlanta Center
11:51AM 34.1433 -83.4489 238° Southwest 388 447 40,000  Level Atlanta Center
11:52AM 34.0856 -83.5597 238° Southwest 388 447 40,000  Level Atlanta Center
11:53AM 34.0275 -83.6703 238° Southwest 388 447 40,000  Level Atlanta Center
11:54AM 33.9819 -83.7833 244° Southwest 388 447 40,000  Level Atlanta Center
11:55AM 33.9694 -83.9086 263° West 371 427 40,000  Level Atlanta Center
11:56AM 33.9592 -84.0339 264° West 376 433 40,000  Level Atlanta Center
11:57AM 33.9486 -84.1589 264° West 381 438 40,000  Level Atlanta Center
11:58AM 33.9358 -84.2792 263° West 390 449 40,000  Level Atlanta Center
11:59AM 33.9211 -84.4067 262° West 390 449 40,000  Level Atlanta Center
12:00PM 33.9122 -84.5369 265° West 390 449 40,000  Level Atlanta Center
12:01PM 33.9011 -84.6644 264° West 390 449 40,000  Level Atlanta Center
12:02PM 33.8881 -84.7919 263° West 390 449 40,000  Level Atlanta Center
12:03PM 33.8767 -84.9344 265° West 390 449 40,000  Level Atlanta Center
12:04PM 33.8653 -85.0619 264° West 390 449 40,000  Level Atlanta Center
12:05PM 33.8536 -85.1869 264° West 385 443 40,000  Level Atlanta Center
12:06PM 33.8419 -85.3144 264° West 385 443 40,000  Level Atlanta Center
12:07PM 33.8281 -85.4392 262° West 385 443 40,000  Level Atlanta Center
12:08PM 33.8183 -85.5514 264° West 385 443 40,000  Level Atlanta Center
12:09PM 33.8042 -85.6789 262° West 390 449 40,000  Level Atlanta Center
12:10PM 33.7878 -85.8083 261° West 377 434 40,000  Level Atlanta Center
12:11PM 33.7733 -85.9331 262° West 372 428 40,000  Level Atlanta Center
12:12PM 33.7589 -86.0578 262° West 372 428 40,000  Level Atlanta Center
12:13PM 33.7483 -86.1847 264° West 377 434 40,000  Level Atlanta Center
12:14PM 33.7358 -86.3094 263° West 382 440 40,000 -60 Level Atlanta Center
12:15PM 33.7189 -86.4314 261° West 382 440 39,900  Descending Atlanta Center
12:16PM 33.7058 -86.5558 263° West 389 448 40,000  Climbing Atlanta Center
12:17PM 33.6908 -86.6803 262° West 389 448 40,000  Level Atlanta Center
12:18PM 33.6797 -86.8047 264° West 389 448 40,000  Level Atlanta Center
12:20PM 33.6525 -87.0383 262° West 402 463 40,000  Level Memphis Center
12:21PM 33.6369 -87.1636 262° West 396 456 40,000  Level Memphis Center
12:22PM 33.6233 -87.2914 263° West 391 450 40,000  Level Memphis Center
12:23PM 33.6119 -87.4164 264° West 391 450 40,000  Level Memphis Center
12:24PM 33.5958 -87.5392 261° West 391 450 40,000  Level Memphis Center
12:25PM 33.5819 -87.6667 263° West 391 450 40,000  Level Memphis Center
12:26PM 33.5658 -87.7919 261° West 391 450 40,000  Level Memphis Center
12:27PM 33.5519 -87.9194 263° West 391 450 40,000  Level Memphis Center
12:28PM 33.5394 -88.0419 263° West 391 450 40,000  Level Memphis Center
12:29PM 33.5231 -88.1694 261° West 391 450 40,000  Level Memphis Center
12:30PM 33.5144 -88.2792 265° West 391 450 40,000  Level Memphis Center
12:31PM 33.5019 -88.4042 263° West 391 450 40,000  Level Memphis Center
12:32PM 33.4872 -88.5289 262° West 391 450 40,000  Level Memphis Center
12:33PM 33.4869 -88.6536 270° West 391 450 40,000  Level Memphis Center
12:34PM 33.4842 -88.7756 268° West 380 437 40,000  Level Memphis Center
12:35PM 33.4836 -88.9003 270° West 380 437 40,000  Level Memphis Center
12:36PM 33.4536 -89.0178 253° West 380 437 40,000  Level Memphis Center
12:37PM 33.4175 -89.1403 251° West 380 437 40,000  Level Memphis Center
12:38PM 33.3808 -89.2575 249° West 385 443 40,000  Level Memphis Center
12:39PM 33.3464 -89.3775 251° West 385 443 40,000  Level Memphis Center
12:40PM 33.3119 -89.4972 251° West 390 449 40,000  Level Memphis Center
12:41PM 33.2708 -89.6267 249° West 390 449 40,000  Level Memphis Center
12:42PM 33.2383 -89.7461 252° West 390 449 40,000  Level Memphis Center
12:43PM 33.2011 -89.8656 250° West 390 449 40,000  Level Memphis Center
12:44PM 33.1639 -89.9900 250° West 390 449 40,000  Level Memphis Center
12:45PM 33.1267 -90.1117 250° West 390 449 40,000  Level Memphis Center
12:46PM 33.0894 -90.2308 250° West 390 449 40,000  Level Memphis Center
12:47PM 33.0497 -90.3497 248° West 390 449 40,000  Level Memphis Center
12:48PM 33.0164 -90.4639 251° West 395 455 40,000  Level Memphis Center
12:49PM 32.9786 -90.5825 249° West 395 455 40,000  Level Memphis Center
12:50PM 32.9408 -90.7039 250° West 390 449 40,000  Level Memphis Center
12:51PM 32.9028 -90.8250 250° West 395 455 40,000  Level Memphis Center
12:52PM 32.8625 -90.9508 249° West 395 455 40,000  Level Memphis Center
12:53PM 32.8244 -91.0692 249° West 395 455 40,000  Level Memphis Center
12:54PM 32.7881 -91.1925 251° West 395 455 40,000  Level Memphis Center
12:56PM 32.6958 -91.4869 250° West 399 459 40,000  Level Fort Worth Center
12:57PM 32.6556 -91.6081 248° West 399 459 40,000  Level Fort Worth Center
12:58PM 32.6278 -91.7331 255° West 399 459 40,000  Level Fort Worth Center
12:59PM 32.6189 -91.8569 265° West 386 444 40,000  Level Fort Worth Center
01:00PM 32.6139 -91.9856 267° West 386 444 40,000  Level Fort Worth Center
01:01PM 32.6067 -92.1092 266° West 386 444 40,000  Level Fort Worth Center
01:02PM 32.5975 -92.2356 265° West 386 444 40,000  Level Fort Worth Center
01:03PM 32.5900 -92.3639 266° West 386 444 40,000  Level Fort Worth Center
01:04PM 32.5822 -92.4803 265° West 386 444 40,000  Level Fort Worth Center
01:05PM 32.5747 -92.6089 266° West 381 438 40,000  Level Fort Worth Center
01:06PM 32.5711 -92.7322 268° West 381 438 40,000  Level Fort Worth Center
01:07PM 32.5589 -92.8586 263° West 387 445 40,000  Level Fort Worth Center
01:08PM 32.5508 -92.9847 266° West 387 445 40,000  Level Fort Worth Center
01:09PM 32.5406 -93.1083 264° West 387 445 40,000  Level Fort Worth Center
01:10PM 32.5303 -93.2344 265° West 387 445 40,000  Level Fort Worth Center
01:11PM 32.5219 -93.3606 266° West 387 445 40,000  Level Fort Worth Center
01:12PM 32.5133 -93.4867 265° West 387 445 40,000  Level Fort Worth Center
01:13PM 32.5025 -93.6103 264° West 387 445 40,000  Level Fort Worth Center
01:14PM 32.4936 -93.7361 265° West 387 445 40,000  Level Fort Worth Center
01:15PM 32.4847 -93.8622 265° West 387 445 40,000  Level Fort Worth Center
01:16PM 32.4736 -93.9856 264° West 387 445 40,000  Level Fort Worth Center
01:17PM 32.4644 -94.1117 265° West 387 445 40,000  Level Fort Worth Center
01:18PM 32.4550 -94.2350 265° West 387 445 40,000  Level Fort Worth Center
01:19PM 32.4478 -94.3558 266° West 387 445 40,000  Level Fort Worth Center
01:20PM 32.4361 -94.4794 264° West 387 445 40,000  Level Fort Worth Center
01:21PM 32.4264 -94.6028 265° West 387 445 40,000 -480 Level Fort Worth Center
01:22PM 32.4164 -94.7261 265° West 387 445 39,100 -1,380 Descending Fort Worth Center
01:23PM 32.4169 -94.8442 270° West 382 440 37,300 -2,100 Descending Fort Worth Center
01:24PM 32.4275 -94.9669 276° West 376 433 35,000 -2,340 Descending Fort Worth Center
01:25PM 32.4447 -95.0919 279° West 382 440 32,700 -2,400 Descending Fort Worth Center
01:26PM 32.4553 -95.2172 276° West 388 447 30,300 -2,460 Descending Fort Worth Center
01:27PM 32.4678 -95.3475 277° West 393 452 27,800 -2,520 Descending Fort Worth Center
01:28PM 32.4844 -95.4800 279° West 399 459 25,300 -2,520 Descending Fort Worth Center
01:29PM 32.4969 -95.6078 277° West 404 465 22,800 -2,340 Descending Fort Worth Center
01:30PM 32.5069 -95.7211 276° West 398 458 20,700 -2,340 Descending Fort Worth Center
01:31PM 32.5189 -95.8564 276° West 385 443 18,200 -2,340 Descending Fort Worth Center
01:32PM 32.5286 -95.9622 276° West 374 430 16,100 -2,280 Descending Fort Worth Center
01:33PM 32.5406 -96.0925 276° West 365 420 13,700 -2,220 Descending Fort Worth Center
01:34PM 32.5478 -96.1886 275° West 358 412 11,700 -2,040 Descending Fort Worth Center
01:35PM 32.5592 -96.2992 277° West 317 365 9,700 -1,800 Descending Fort Worth Center
01:36PM 32.5911 -96.3706 298° West 285 328 8,200 -2,220 Descending Fort Worth Center
01:37PM 32.6378 -96.4514 304° West 270 311 5,300 -1,920 Descending Fort Worth Center
01:38PM 32.6467 -96.5300 278° West 263 303 4,400 -660 Descending Fort Worth Center
01:39PM 32.6533 -96.6139 275° West 251 289 4,000 -540 Descending Fort Worth Center
01:40PM 32.6667 -96.6500 294° West 225 259 3,600 -720 Descending Dallas / Fort Worth TRACON
01:41PM 32.7000 -96.7000 308° West 185 213 3,000 -660 Descending Dallas / Fort Worth TRACON
01:42PM 32.7500 -96.7333 331° Northwest 190 219 2,300 -600 Descending Dallas / Fort Worth TRACON
01:43PM 32.7833 -96.7833 308° West 190 219 1,900 -600 Descending Dallas / Fort Worth TRACON
01:44PM 32.8167 -96.8167 320° Northwest 129 148 1,100 -840 Descending Dallas / Fort Worth TRACON
01:49PM 32.8333 -96.8500 301° West  Level FlightAware Approximate
01:56PM 32.8471 -96.8518 301° West  Level Estimated